Phuket, Thailand

1:03 PM ICT on October 26, 2014 (GMT +0700)
Phuket International | Change Station
CLOSE
Current Station
Airport
Location: Phuket,
Elevation: 30 ft
Nearby Weather Stations

Elev 30 ft 8.11 °N, 98.32 °E | Updated 33 minutes ago

Light Rain
Light Rain
81 °F
Feels Like 86 °F
N
8
Wind Variable Wind from West

Today
High -- | Low -- °F
--% Chance of Precip.
Yesterday
High -- | Low -- °F
Precip. -- in
6:14 AM 6:06 PM
Waxing Crescent, 6% visible
Pressure 29.89 in
Visibility 4.3 miles
Clouds Scattered Clouds 1600 ft
Scattered Clouds 12000 ft
Mostly Cloudy 30000 ft
Heat Index 86 °F
Dew Point 75 °F
Humidity 84%
Rainfall 0.00 in
Snow Depth Not available.
UV 8 out of 12
Pollen Not available.
Air Quality Not available.
Flu Activity Not available.
METAR VTSP 260530Z 26007KT 7000 -RA SCT016 SCT120 BKN300 27/24 Q1012 A2991 NOSIG

More Conditions Fewer Conditions

Pressure 29.89 in
Visibility 4.3 miles
Clouds Scattered Clouds 1600 ft
Scattered Clouds 12000 ft
Mostly Cloudy 30000 ft
Heat Index 86 °F
Dew Point 75 °F
Humidity 84%
Rainfall 0.00 in
Snow Depth Not available.
UV 8 out of 12
Pollen Not available.
Air Quality Not available.
Flu Activity Not available.
METAR VTSP 260530Z 26007KT 7000 -RA SCT016 SCT120 BKN300 27/24 Q1012 A2991 NOSIG

More Conditions Fewer Conditions

10-Day Weather Forecast

Almanac

Astronomy

Oct. 26, 2014 Rise Set
Actual Time 6:14 AM ICT 6:06 PM ICT
Civil Twilight 5:53 AM ICT 6:28 PM ICT
Nautical Twilight 5:28 AM ICT 6:52 PM ICT
Astronomical Twilight 5:03 AM ICT 7:17 PM ICT
Moon 8:05 AM ICT 8:10 PM ICT
Length of Visible Light 12h 35m
Length of Day
11h 52m
Tomorrow will be 0m 23s shorter.
Waxing Crescent, 6% of the Moon is Illuminated
Today
Waxing Crescent
Oct 30
First Quarter
Nov 6
Full
Nov 14
Last Quarter
Nov 22
New

Yesterday's Extremes

Country Highs Country Lows

Community

WunderPhotos

Upload Photos

1,765,113 photos uploaded!

Nearby

Snow Depth

Not available.

Earthquake Activity

City Distance Mag. Time & Date
No recent earthquake activity has been reported nearby.
Minimum magnitude displayed is 2.5.

Coastal Water Temperatures

Place Temperature
No Stations Reporting

Nearby Weather Stations